createdAt,value
2019-01-19T00:03:01.093Z,6.10
2019-01-19T00:06:08.407Z,7.43
2019-01-19T00:08:55.066Z,6.73
2019-01-19T00:12:00.841Z,8.70
2019-01-19T00:14:34.092Z,4.77
2019-01-19T00:17:28.436Z,8.03
2019-01-19T00:20:50.908Z,6.53
2019-01-19T00:23:43.212Z,7.20
2019-01-19T00:26:38.114Z,9.47
2019-01-19T00:29:16.552Z,9.97
2019-01-19T00:31:54.114Z,10.27
2019-01-19T00:35:08.389Z,7.23
2019-01-19T00:37:44.500Z,8.37
2019-01-19T00:41:00.323Z,13.53
2019-01-19T00:43:36.317Z,6.53
2019-01-19T00:46:32.515Z,8.07
2019-01-19T00:49:33.273Z,6.87
2019-01-19T00:52:38.849Z,6.87
2019-01-19T00:55:37.231Z,9.13
2019-01-19T00:58:24.937Z,9.10
2019-01-19T01:01:20.573Z,6.93
2019-01-19T01:04:15.087Z,8.83
2019-01-19T01:07:03.561Z,8.73
2019-01-19T01:10:19.671Z,11.17
2019-01-19T01:13:20.993Z,8.53
2019-01-19T01:16:29.553Z,7.27
2019-01-19T01:19:19.181Z,8.57
2019-01-19T01:22:24.371Z,8.30
2019-01-19T01:25:14.126Z,9.20
2019-01-19T01:28:08.279Z,6.30
2019-01-19T01:30:57.210Z,7.03
2019-01-19T01:33:57.836Z,8.07
2019-01-19T01:36:52.774Z,7.13
2019-01-19T01:39:52.702Z,10.73
2019-01-19T01:43:12.346Z,5.77
2019-01-19T01:46:38.100Z,13.93
2019-01-19T01:49:39.974Z,7.73
2019-01-19T01:52:28.417Z,11.87
2019-01-19T01:55:23.382Z,11.60
2019-01-19T01:58:39.120Z,13.13
2019-01-19T02:01:45.978Z,11.87
2019-01-19T02:04:30.182Z,6.60
2019-01-19T02:07:35.943Z,7.27
2019-01-19T02:10:29.708Z,7.57
2019-01-19T02:13:22.905Z,11.23
2019-01-19T02:16:32.731Z,10.50
2019-01-19T02:19:18.388Z,6.73
2019-01-19T02:22:16.800Z,9.63
2019-01-19T02:25:47.755Z,7.50
2019-01-19T02:29:06.540Z,9.10
2019-01-19T02:31:56.794Z,7.90
2019-01-19T02:34:49.328Z,8.13
2019-01-19T02:37:34.024Z,7.77
2019-01-19T02:40:26.069Z,11.10
2019-01-19T02:43:08.968Z,12.33
2019-01-19T02:46:24.689Z,5.80
2019-01-19T02:49:37.579Z,7.53
2019-01-19T02:52:48.018Z,10.63
2019-01-19T02:55:54.499Z,6.47
2019-01-19T02:58:58.531Z,7.83
2019-01-19T03:02:15.122Z,8.33
2019-01-19T03:05:19.433Z,5.53
2019-01-19T03:07:58.679Z,9.53
2019-01-19T03:10:52.638Z,9.53
2019-01-19T03:13:53.633Z,9.00
2019-01-19T03:17:10.647Z,10.70
2019-01-19T03:20:17.082Z,7.27
2019-01-19T03:23:37.358Z,10.80
2019-01-19T03:26:43.825Z,8.50
2019-01-19T03:30:15.473Z,7.50
2019-01-19T03:33:24.887Z,7.07
2019-01-19T03:36:14.226Z,9.07
2019-01-19T03:39:17.146Z,8.67
2019-01-19T03:42:27.826Z,12.27
2019-01-19T03:45:28.016Z,9.03
2019-01-19T03:48:19.647Z,5.93
2019-01-19T03:51:11.308Z,6.30
2019-01-19T03:54:12.092Z,9.10
2019-01-19T03:56:57.670Z,5.13
2019-01-19T03:59:59.373Z,8.13
2019-01-19T04:03:10.902Z,6.00
2019-01-19T04:05:55.564Z,5.83
2019-01-19T04:09:02.512Z,7.10
2019-01-19T04:11:49.261Z,7.27
2019-01-19T04:14:44.468Z,7.00
2019-01-19T04:18:00.359Z,8.10
2019-01-19T04:20:54.359Z,10.53
2019-01-19T04:23:23.759Z,10.47
2019-01-19T04:26:00.639Z,7.23
2019-01-19T04:28:30.337Z,8.27
2019-01-19T04:30:59.967Z,9.03
2019-01-19T04:33:29.515Z,6.97
2019-01-19T04:35:58.936Z,6.50
2019-01-19T04:38:28.403Z,8.53
2019-01-19T04:40:57.814Z,9.27
2019-01-19T04:43:27.275Z,7.23
2019-01-19T04:45:56.682Z,8.33
2019-01-19T04:48:26.087Z,9.93
2019-01-19T04:50:55.493Z,8.00
2019-01-19T04:53:24.886Z,6.30
2019-01-19T04:55:54.327Z,9.37
2019-01-19T04:58:23.787Z,8.17
2019-01-19T05:00:53.255Z,9.07
2019-01-19T05:03:22.736Z,8.23
2019-01-19T05:05:52.152Z,8.27
2019-01-19T05:08:21.902Z,15.17
2019-01-19T05:10:51.893Z,7.77
2019-01-19T05:13:21.425Z,7.60
2019-01-19T05:15:50.839Z,12.50
2019-01-19T05:18:20.426Z,8.63
2019-01-19T05:20:51.475Z,13.20
2019-01-19T05:23:21.090Z,5.83
2019-01-19T05:25:50.537Z,11.10
2019-01-19T05:28:19.934Z,8.03
2019-01-19T05:30:49.338Z,11.53
2019-01-19T05:33:18.759Z,9.13
2019-01-19T05:35:48.235Z,10.77
2019-01-19T05:38:17.642Z,9.13
2019-01-19T05:40:47.050Z,11.47
2019-01-19T05:43:16.463Z,10.23
2019-01-19T05:45:45.921Z,10.17
2019-01-19T05:48:15.311Z,7.10
2019-01-19T05:50:44.730Z,8.40
2019-01-19T05:53:14.167Z,11.27
2019-01-19T05:55:43.578Z,12.63
2019-01-19T05:58:12.978Z,9.60
2019-01-19T06:00:42.561Z,11.43
2019-01-19T06:03:12.041Z,9.20
2019-01-19T06:05:42.215Z,8.00
2019-01-19T06:08:11.686Z,10.23
2019-01-19T06:10:41.167Z,8.30
2019-01-19T06:13:10.750Z,7.50
2019-01-19T06:15:40.151Z,9.23
2019-01-19T06:18:09.631Z,7.67
2019-01-19T06:20:39.050Z,10.80
2019-01-19T06:23:08.467Z,10.50
2019-01-19T06:25:37.868Z,7.07
2019-01-19T06:28:07.286Z,7.87
2019-01-19T06:30:36.991Z,10.43
2019-01-19T06:33:06.429Z,10.87
2019-01-19T06:35:35.815Z,6.00
2019-01-19T06:38:05.410Z,9.20
2019-01-19T06:40:34.807Z,8.90
2019-01-19T06:43:04.206Z,11.97
2019-01-19T06:45:33.720Z,10.40
2019-01-19T06:48:03.138Z,11.10
2019-01-19T06:50:32.546Z,8.87
2019-01-19T06:53:01.958Z,9.80
2019-01-19T06:55:33.264Z,9.67
2019-01-19T06:58:02.685Z,9.57
2019-01-19T07:00:32.182Z,9.73
2019-01-19T07:03:01.627Z,9.33
2019-01-19T07:05:31.090Z,12.40
2019-01-19T07:08:00.536Z,11.20
2019-01-19T07:10:29.952Z,12.33
2019-01-19T07:12:59.440Z,11.17
2019-01-19T07:15:29.038Z,10.87
2019-01-19T07:17:58.450Z,7.50
2019-01-19T07:20:30.945Z,8.83
2019-01-19T07:23:00.602Z,9.53
2019-01-19T07:25:30.002Z,12.20
2019-01-19T07:27:59.464Z,10.80
2019-01-19T07:30:28.950Z,13.27
2019-01-19T07:32:58.466Z,13.30
2019-01-19T07:35:27.874Z,15.77
2019-01-19T07:37:57.370Z,17.33
2019-01-19T07:40:26.865Z,9.60
2019-01-19T07:42:59.629Z,9.37
2019-01-19T07:45:29.082Z,11.97
2019-01-19T07:47:58.495Z,10.27
2019-01-19T07:50:27.935Z,10.77
2019-01-19T07:52:57.415Z,11.07
2019-01-19T07:55:26.865Z,10.23
2019-01-19T07:57:56.342Z,10.13
2019-01-19T08:00:28.485Z,8.07
2019-01-19T08:02:57.945Z,15.50
2019-01-19T08:05:27.516Z,12.50
2019-01-19T08:07:57.215Z,12.67
2019-01-19T08:10:26.652Z,14.20
2019-01-19T08:12:56.311Z,13.40
2019-01-19T08:15:26.833Z,9.27
2019-01-19T08:17:56.622Z,9.93
2019-01-19T08:20:26.174Z,10.47
2019-01-19T08:22:55.589Z,14.93
2019-01-19T08:25:25.235Z,12.67
2019-01-19T08:27:54.876Z,16.50
2019-01-19T08:30:26.518Z,15.93
2019-01-19T08:32:56.121Z,10.13
2019-01-19T08:35:25.661Z,15.30
2019-01-19T08:37:55.105Z,13.60
2019-01-19T08:40:26.965Z,14.03
2019-01-19T08:43:01.661Z,15.23
2019-01-19T08:45:31.250Z,12.50
2019-01-19T08:48:01.544Z,17.07
2019-01-19T08:50:30.974Z,17.33
2019-01-19T08:53:00.388Z,13.60
2019-01-19T08:55:29.961Z,20.93
2019-01-19T08:57:59.405Z,17.50
2019-01-19T09:00:28.806Z,15.17
2019-01-19T09:02:58.203Z,18.50
2019-01-19T09:05:27.719Z,16.77
2019-01-19T09:07:57.202Z,18.23
2019-01-19T09:10:26.712Z,15.27
2019-01-19T09:12:56.342Z,15.17
2019-01-19T09:15:25.958Z,18.97
2019-01-19T09:17:55.366Z,12.10
2019-01-19T09:20:24.813Z,15.37
2019-01-19T09:22:59.183Z,16.20
2019-01-19T09:25:28.670Z,14.10
2019-01-19T09:27:58.070Z,23.50
2019-01-19T09:30:27.492Z,16.57
2019-01-19T09:32:57.692Z,15.80
2019-01-19T09:35:27.209Z,15.13
2019-01-19T09:37:56.763Z,20.50
2019-01-19T09:40:26.374Z,16.30
2019-01-19T09:42:56.047Z,21.63
2019-01-19T09:45:25.593Z,21.07
2019-01-19T09:47:55.062Z,18.00
2019-01-19T09:50:24.735Z,17.13
2019-01-19T09:52:54.331Z,18.77
2019-01-19T09:55:23.825Z,19.57
2019-01-19T09:57:53.305Z,17.23
2019-01-19T10:00:22.795Z,20.67
2019-01-19T10:02:52.397Z,16.07
2019-01-19T10:05:22.348Z,17.50
2019-01-19T10:07:52.079Z,20.33
2019-01-19T10:10:21.757Z,20.33
2019-01-19T10:12:51.771Z,17.13
2019-01-19T10:15:21.713Z,24.23
2019-01-19T10:17:51.421Z,17.70
2019-01-19T10:20:22.850Z,19.70
2019-01-19T10:22:52.355Z,22.37
2019-01-19T10:25:21.799Z,20.57
2019-01-19T10:27:51.330Z,20.03
2019-01-19T10:30:22.979Z,19.33
2019-01-19T10:32:52.462Z,19.90
2019-01-19T10:35:21.994Z,18.73
2019-01-19T10:37:56.266Z,19.00
2019-01-19T10:40:22.979Z,18.60
2019-01-19T10:42:52.728Z,29.37
2019-01-19T10:45:23.755Z,19.47
2019-01-19T10:47:53.493Z,18.13
2019-01-19T10:50:23.134Z,22.80
2019-01-19T10:52:52.699Z,21.13
2019-01-19T10:55:22.444Z,20.53
2019-01-19T10:57:52.186Z,19.87
2019-01-19T11:00:24.279Z,21.47
2019-01-19T11:02:54.114Z,18.07
2019-01-19T11:05:23.609Z,17.83
2019-01-19T11:07:53.410Z,21.10
2019-01-19T11:10:24.883Z,19.80
2019-01-19T11:12:54.492Z,18.03
2019-01-19T11:15:24.052Z,19.90
2019-01-19T11:17:53.827Z,20.53
2019-01-19T11:20:25.741Z,15.27
2019-01-19T11:22:56.440Z,19.20
2019-01-19T11:25:25.973Z,18.80
2019-01-19T11:27:55.789Z,17.17
2019-01-19T11:30:27.175Z,21.73
2019-01-19T11:32:56.762Z,21.73
2019-01-19T11:35:29.363Z,19.23
2019-01-19T11:37:58.949Z,21.30
2019-01-19T11:40:31.407Z,21.63
2019-01-19T11:43:01.003Z,23.47
2019-01-19T11:45:30.692Z,22.97
2019-01-19T11:48:00.423Z,23.60
2019-01-19T11:50:29.823Z,18.97
2019-01-19T11:52:59.423Z,20.23
2019-01-19T11:55:29.035Z,20.50
2019-01-19T11:58:00.922Z,20.10
2019-01-19T12:00:31.838Z,18.80
2019-01-19T12:03:01.374Z,15.57
2019-01-19T12:05:31.048Z,18.30
2019-01-19T12:08:00.629Z,18.07
2019-01-19T12:10:30.937Z,22.73
2019-01-19T12:13:00.492Z,27.83
2019-01-19T12:15:30.290Z,20.20
2019-01-19T12:17:59.918Z,21.80
2019-01-19T12:20:35.160Z,19.00
2019-01-19T12:23:04.650Z,18.20
2019-01-19T12:25:34.096Z,24.73
2019-01-19T12:28:03.572Z,19.87
2019-01-19T12:30:33.202Z,27.90
2019-01-19T12:33:02.752Z,25.40
2019-01-19T12:35:32.860Z,30.03
2019-01-19T12:38:02.638Z,25.07
2019-01-19T12:40:32.370Z,27.90
2019-01-19T12:43:08.408Z,22.40
2019-01-19T12:46:01.805Z,19.23
2019-01-19T12:48:31.510Z,23.87
2019-01-19T12:51:02.920Z,20.27
2019-01-19T12:53:32.334Z,23.07
2019-01-19T12:56:01.768Z,19.57
2019-01-19T12:58:31.256Z,20.80
2019-01-19T13:01:00.718Z,22.63
2019-01-19T13:03:30.164Z,21.17
2019-01-19T13:06:09.895Z,26.60
2019-01-19T13:08:39.460Z,21.57
2019-01-19T13:11:47.407Z,21.73
2019-01-19T13:14:16.833Z,24.13
2019-01-19T13:17:20.125Z,22.23
2019-01-19T13:19:59.331Z,23.93
2019-01-19T13:23:11.913Z,22.37
2019-01-19T13:26:02.479Z,20.43
2019-01-19T13:29:12.464Z,22.40
2019-01-19T13:31:50.865Z,19.07
2019-01-19T13:35:04.431Z,21.70
2019-01-19T13:38:01.963Z,21.97
2019-01-19T13:40:55.117Z,28.50
2019-01-19T13:44:30.531Z,19.70
2019-01-19T13:47:50.791Z,23.87
2019-01-19T13:51:03.663Z,20.90
2019-01-19T13:54:01.773Z,19.77
2019-01-19T13:56:59.363Z,23.67
2019-01-19T13:59:45.779Z,23.93
2019-01-19T14:02:45.636Z,19.40
2019-01-19T14:05:41.415Z,22.73
2019-01-19T14:08:35.038Z,24.53
2019-01-19T14:11:40.658Z,19.73
2019-01-19T14:14:33.874Z,20.97
2019-01-19T14:17:51.414Z,19.63
2019-01-19T14:20:54.396Z,24.63
2019-01-19T14:23:58.310Z,21.23
2019-01-19T14:27:02.706Z,18.43
2019-01-19T14:30:17.002Z,15.77
2019-01-19T14:33:40.509Z,14.10
2019-01-19T14:36:47.650Z,16.47
2019-01-19T14:40:04.982Z,22.83
2019-01-19T14:43:00.212Z,21.10
2019-01-19T14:46:23.622Z,19.53
2019-01-19T14:49:58.773Z,16.73
2019-01-19T14:53:00.586Z,16.50
2019-01-19T14:56:13.593Z,18.17
2019-01-19T14:59:20.417Z,16.07
2019-01-19T15:02:28.487Z,19.20
2019-01-19T15:05:31.820Z,17.10
2019-01-19T15:08:49.530Z,16.83
2019-01-19T15:11:34.506Z,20.23
2019-01-19T15:14:14.407Z,18.73
2019-01-19T15:17:05.412Z,16.30
2019-01-19T15:20:02.873Z,17.17
2019-01-19T15:23:26.129Z,14.00
2019-01-19T15:26:18.821Z,16.40
2019-01-19T15:29:21.004Z,17.40
2019-01-19T15:32:07.492Z,19.67
2019-01-19T15:35:07.199Z,17.07
2019-01-19T15:38:05.656Z,16.50
2019-01-19T15:41:12.029Z,17.60
2019-01-19T15:44:04.706Z,14.43
2019-01-19T15:47:27.480Z,19.07
2019-01-19T15:50:41.713Z,20.13
2019-01-19T15:53:21.402Z,18.30
2019-01-19T15:56:18.338Z,19.47
2019-01-19T15:59:16.898Z,17.10
2019-01-19T16:02:14.839Z,14.03
2019-01-19T16:05:28.024Z,16.63
2019-01-19T16:08:09.443Z,21.23
2019-01-19T16:11:09.316Z,13.03
2019-01-19T16:13:54.248Z,18.20
2019-01-19T16:16:51.412Z,18.17
2019-01-19T16:20:02.187Z,22.77
2019-01-19T16:22:48.658Z,20.50
2019-01-19T16:26:01.202Z,25.40
2019-01-19T16:28:59.410Z,13.50
2019-01-19T16:32:07.773Z,21.33
2019-01-19T16:35:05.768Z,17.30
2019-01-19T16:37:49.304Z,16.60
2019-01-19T16:40:43.594Z,17.43
2019-01-19T16:43:54.624Z,19.47
2019-01-19T16:47:20.781Z,17.53
2019-01-19T16:50:43.303Z,12.17
2019-01-19T16:53:24.215Z,17.40
2019-01-19T16:56:32.861Z,23.63
2019-01-19T16:59:26.821Z,26.37
2019-01-19T17:02:31.180Z,17.50
2019-01-19T17:05:38.698Z,18.43
2019-01-19T17:08:55.531Z,17.90
2019-01-19T17:11:36.347Z,17.10
2019-01-19T17:14:39.630Z,20.33
2019-01-19T17:17:40.453Z,20.87
2019-01-19T17:20:22.185Z,21.33
2019-01-19T17:23:08.756Z,16.73
2019-01-19T17:26:19.555Z,20.10
2019-01-19T17:29:23.654Z,19.80
2019-01-19T17:32:03.945Z,23.27
2019-01-19T17:35:11.699Z,17.07
2019-01-19T17:38:03.690Z,24.70
2019-01-19T17:41:23.675Z,19.17
2019-01-19T17:44:04.650Z,19.77
2019-01-19T17:47:16.181Z,21.07
2019-01-19T17:50:25.496Z,21.97
2019-01-19T17:53:24.224Z,21.00
2019-01-19T17:56:27.792Z,22.33
2019-01-19T17:59:27.284Z,14.03
2019-01-19T18:02:46.952Z,18.20
2019-01-19T18:05:35.472Z,19.67
2019-01-19T18:08:30.544Z,20.87
2019-01-19T18:11:50.968Z,17.70
2019-01-19T18:14:31.358Z,19.63
2019-01-19T18:17:40.583Z,20.53
2019-01-19T18:20:23.887Z,18.63
2019-01-19T18:23:32.777Z,20.33
2019-01-19T18:26:33.312Z,20.20
2019-01-19T18:29:19.494Z,22.93
2019-01-19T18:32:31.194Z,18.87
2019-01-19T18:35:13.394Z,24.57
2019-01-19T18:38:22.417Z,18.63
2019-01-19T18:41:23.779Z,23.00
2019-01-19T18:44:30.076Z,20.60
2019-01-19T18:47:32.385Z,22.87
2019-01-19T18:50:29.624Z,21.03
2019-01-19T18:53:23.338Z,18.17
2019-01-19T18:56:41.785Z,22.40
2019-01-19T18:59:36.523Z,18.73
2019-01-19T19:02:19.402Z,20.30
2019-01-19T19:05:49.967Z,20.10
2019-01-19T19:08:35.349Z,20.90
2019-01-19T19:11:32.648Z,20.47
2019-01-19T19:14:33.383Z,22.53
2019-01-19T19:17:35.686Z,20.80
2019-01-19T19:20:15.068Z,26.10
2019-01-19T19:23:13.668Z,20.97
2019-01-19T19:26:26.263Z,23.43
2019-01-19T19:29:48.614Z,22.47
2019-01-19T19:32:57.354Z,20.20
2019-01-19T19:36:06.364Z,23.03
2019-01-19T19:38:58.796Z,27.43
2019-01-19T19:42:07.808Z,22.73
2019-01-19T19:45:03.547Z,29.03
2019-01-19T19:47:55.632Z,34.47
2019-01-19T19:50:45.262Z,25.20
2019-01-19T19:53:14.793Z,29.40
2019-01-19T19:55:42.975Z,26.87
2019-01-19T19:58:12.497Z,22.93
2019-01-19T20:00:42.769Z,25.87
2019-01-19T20:03:12.431Z,22.90
2019-01-19T20:05:42.051Z,22.33
2019-01-19T20:08:11.697Z,24.97
2019-01-19T20:10:41.429Z,24.93
2019-01-19T20:13:11.013Z,23.63
2019-01-19T20:15:40.678Z,26.87
2019-01-19T20:18:10.421Z,23.90
2019-01-19T20:20:40.033Z,23.77
2019-01-19T20:23:09.591Z,24.10
2019-01-19T20:25:39.119Z,25.43
2019-01-19T20:28:08.687Z,19.73
2019-01-19T20:30:38.250Z,21.40
2019-01-19T20:33:07.865Z,18.73
2019-01-19T20:35:37.440Z,22.00
2019-01-19T20:38:07.025Z,22.37
2019-01-19T20:40:36.639Z,16.40
2019-01-19T20:43:06.218Z,18.43
2019-01-19T20:45:35.819Z,36.03
2019-01-19T20:48:05.384Z,21.10
2019-01-19T20:50:34.855Z,22.17
2019-01-19T20:53:04.351Z,20.10
2019-01-19T20:55:34.179Z,19.70
2019-01-19T20:58:03.985Z,16.07
2019-01-19T21:00:33.631Z,24.30
2019-01-19T21:03:03.297Z,17.07
2019-01-19T21:05:32.802Z,24.50
2019-01-19T21:08:02.344Z,20.63
2019-01-19T21:10:32.240Z,19.37
2019-01-19T21:13:02.015Z,14.60
2019-01-19T21:15:31.532Z,17.57
2019-01-19T21:18:01.026Z,17.53
2019-01-19T21:20:30.492Z,19.30
2019-01-19T21:23:00.016Z,21.33
2019-01-19T21:25:29.556Z,21.43
2019-01-19T21:27:59.088Z,23.67
2019-01-19T21:30:28.700Z,18.17
2019-01-19T21:32:58.266Z,23.93
2019-01-19T21:35:27.838Z,18.60
2019-01-19T21:37:57.402Z,20.77
2019-01-19T21:40:26.898Z,19.20
2019-01-19T21:42:56.640Z,24.20
2019-01-19T21:45:26.199Z,25.93
2019-01-19T21:47:55.708Z,37.97
2019-01-19T21:50:25.215Z,30.80
2019-01-19T21:53:02.052Z,23.20
2019-01-19T21:55:31.662Z,21.40
2019-01-19T21:58:01.219Z,22.23
2019-01-19T22:00:30.757Z,24.53
2019-01-19T22:03:00.431Z,22.67
2019-01-19T22:05:31.060Z,23.83
2019-01-19T22:08:00.831Z,24.80
2019-01-19T22:10:30.688Z,26.93
2019-01-19T22:13:00.257Z,23.53
2019-01-19T22:15:29.833Z,22.40
2019-01-19T22:17:59.366Z,25.57
2019-01-19T22:20:28.991Z,21.73
2019-01-19T22:22:58.658Z,23.57
2019-01-19T22:25:28.223Z,22.47
2019-01-19T22:27:57.729Z,20.33
2019-01-19T22:30:27.281Z,24.53
2019-01-19T22:32:57.155Z,21.97
2019-01-19T22:35:29.137Z,23.43
2019-01-19T22:37:58.841Z,18.47
2019-01-19T22:40:28.499Z,22.63
2019-01-19T22:43:03.877Z,22.03
2019-01-19T22:45:33.513Z,18.77
2019-01-19T22:48:03.214Z,21.43
2019-01-19T22:50:32.964Z,21.50
2019-01-19T22:53:02.540Z,21.30
2019-01-19T22:55:32.052Z,19.80
2019-01-19T22:58:01.630Z,24.27
2019-01-19T23:01:06.723Z,20.33
2019-01-19T23:03:37.912Z,27.80
2019-01-19T23:06:07.596Z,25.20
2019-01-19T23:08:37.266Z,26.70
2019-01-19T23:11:07.108Z,21.83
2019-01-19T23:13:36.741Z,24.10
2019-01-19T23:16:06.556Z,23.47
2019-01-19T23:18:36.042Z,21.80
2019-01-19T23:21:05.628Z,25.00
2019-01-19T23:23:35.258Z,24.30
2019-01-19T23:26:05.024Z,22.27
2019-01-19T23:28:34.566Z,23.10
2019-01-19T23:31:04.242Z,24.07
2019-01-19T23:33:33.768Z,23.03
2019-01-19T23:36:03.776Z,22.40
2019-01-19T23:38:33.310Z,21.73
2019-01-19T23:41:08.866Z,23.17
2019-01-19T23:43:34.141Z,24.43
2019-01-19T23:46:03.683Z,25.03
2019-01-19T23:48:33.261Z,23.97
2019-01-19T23:51:03.504Z,24.57
2019-01-19T23:53:33.008Z,24.13
2019-01-19T23:56:02.574Z,26.43
2019-01-19T23:58:32.099Z,23.13
